ETHL

Laupheim Airport

Germany
METAR ETHL 240120Z 21004KT 7000 FEW140 13/12 Q1018 WHT
Observed Flight Rules
May-24 @ 01:20 UTC (39 minutes ago) Marginal Visual Flight Rules
Wind Visibility Clouds
210° at 4 knots 7,001 meters
  • Few at 14,000' AGL
Temperatures Readings
Current 13°C / 55°F
Dewpoint 12°C / 54°F
Humidity 94%
Altimeter 30.06" Hg
Pressure 1018 hPa
Elevation 549
METAR ETHL 240120Z 21004KT 7000 FEW140 13/12 Q1018 WHT
Observed Flight Rules
May-24 @ 01:20 UTC
(39 minutes ago)
MVFR
Wind Visibility
210° at 4 knots 7,001 meters
Clouds
  • Few at 14,000' AGL
Temperature Dewpoint
13°C / 55°F 12°C / 54°F
Humidity Altimeter Pressure
94% 30.06" Hg 1018 hPa